Time;durP1;ratioP1;P1;durP2;ratioP2;P2;SDS_P1;SDS_P2;PMS_P1;PMS_P2;Temp;Humidity;BMP_temperature;BMP_pressure;BME280_temperature;BME280_humidity;BME280_pressure;Samples;Min_cycle;Max_cycle;Signal;HPM_P1;HPM_P2
2022/09/17 00:02:26;;;;;;;0.93;0.40;;;21.40;55.40;;;;;;6215209;28;20065;-74
2022/09/17 00:05:26;;;;;;;0.75;0.50;;;21.40;54.70;;;;;;6214760;28;20351;-74
2022/09/17 00:08:27;;;;;;;1.15;0.60;;;21.40;54.70;;;;;;6214226;28;20467;-74
2022/09/17 00:11:30;;;;;;;2.10;0.60;;;21.40;54.90;;;;;;6214451;28;20025;-74
2022/09/17 00:14:31;;;;;;;3.28;0.40;;;21.40;54.60;;;;;;6215177;28;20136;-73
2022/09/17 00:17:31;;;;;;;0.90;0.50;;;21.40;54.70;;;;;;6214419;28;20022;-74
2022/09/17 00:20:46;;;;;;;0.85;0.50;;;21.40;54.90;;;;;;6214522;28;20026;-73
2022/09/17 00:23:46;;;;;;;0.90;0.50;;;21.40;55.00;;;;;;6212797;28;20045;-74
2022/09/17 00:26:49;;;;;;;0.60;0.50;;;21.40;55.50;;;;;;6212978;28;20369;-74
2022/09/17 00:29:49;;;;;;;0.95;0.43;;;21.40;54.80;;;;;;6214601;28;20049;-73
2022/09/17 00:32:52;;;;;;;0.65;0.45;;;21.40;54.70;;;;;;6214469;28;20105;-74
2022/09/17 00:36:00;;;;;;;0.90;0.52;;;21.40;55.20;;;;;;6214567;28;20161;-73
2022/09/17 00:39:01;;;;;;;0.40;0.40;;;21.40;54.90;;;;;;6213299;28;20022;-73
2022/09/17 00:42:04;;;;;;;2.80;0.55;;;21.40;54.60;;;;;;6213891;28;20067;-73
2022/09/17 00:45:05;;;;;;;1.00;0.50;;;21.40;54.90;;;;;;6214003;28;20132;-73
2022/09/17 00:48:09;;;;;;;0.60;0.40;;;21.40;54.80;;;;;;6210188;28;20037;-74
2022/09/17 00:51:11;;;;;;;2.10;0.90;;;21.40;54.90;;;;;;6214213;28;20018;-74
2022/09/17 00:54:12;;;;;;;0.95;0.50;;;21.40;55.60;;;;;;6213054;28;20384;-74
2022/09/17 00:57:13;;;;;;;0.65;0.45;;;21.40;55.30;;;;;;6213743;28;20042;-74
2022/09/17 01:00:15;;;;;;;0.47;0.40;;;21.40;55.30;;;;;;6214667;28;20034;-74
2022/09/17 01:03:16;;;;;;;0.73;0.40;;;21.40;54.90;;;;;;6213876;28;20434;-74
2022/09/17 01:06:26;;;;;;;1.30;0.55;;;21.40;54.80;;;;;;6214043;28;20061;-73
2022/09/17 01:09:53;;;;;;;1.75;0.70;;;21.40;54.80;;;;;;6215778;28;20423;-73
2022/09/17 01:13:12;;;;;;;1.42;0.47;;;21.40;55.00;;;;;;6215190;28;20030;-74
2022/09/17 01:16:25;;;;;;;1.05;0.57;;;21.40;54.80;;;;;;6217879;28;20176;-73
2022/09/17 01:19:57;;;;;;;1.17;0.50;;;21.40;55.00;;;;;;6218365;28;20022;-74
2022/09/17 01:23:20;;;;;;;1.42;0.60;;;21.40;55.40;;;;;;6193745;28;20114;-74
2022/09/17 01:26:40;;;;;;;0.73;0.30;;;21.40;55.10;;;;;;6205881;28;20396;-73
2022/09/17 01:29:46;;;;;;;1.23;0.50;;;21.40;55.10;;;;;;6218092;28;20388;-74
2022/09/17 01:33:07;;;;;;;0.65;0.40;;;21.40;55.00;;;;;;6218041;28;20057;-73
2022/09/17 01:36:11;;;;;;;0.60;0.47;;;21.40;54.90;;;;;;6217976;28;20038;-73
2022/09/17 01:39:27;;;;;;;1.58;0.63;;;21.40;55.10;;;;;;6217921;28;20110;-74
2022/09/17 01:42:48;;;;;;;1.45;0.50;;;21.40;55.00;;;;;;6217407;28;20112;-74
2022/09/17 01:45:59;;;;;;;0.90;0.40;;;21.40;55.00;;;;;;6216423;28;20476;-74
2022/09/17 01:49:04;;;;;;;0.77;0.43;;;21.40;55.00;;;;;;6217225;28;20034;-73
2022/09/17 01:52:10;;;;;;;0.40;0.40;;;21.40;55.10;;;;;;6216305;28;20026;-74
2022/09/17 01:55:14;;;;;;;0.68;0.47;;;21.30;55.00;;;;;;6221965;28;20022;-74
2022/09/17 01:58:27;;;;;;;0.55;0.30;;;21.40;55.20;;;;;;6217244;28;20026;-74
2022/09/17 02:01:31;;;;;;;1.55;0.38;;;21.40;55.00;;;;;;6217203;28;20053;-74
2022/09/17 02:04:45;;;;;;;0.88;0.50;;;21.40;55.00;;;;;;6216093;28;20037;-73
2022/09/17 02:07:57;;;;;;;0.98;0.32;;;21.40;55.10;;;;;;6217111;28;20041;-73
2022/09/17 02:11:07;;;;;;;0.65;0.40;;;21.40;55.20;;;;;;6217383;28;20021;-74
2022/09/17 02:14:29;;;;;;;0.82;0.40;;;21.40;55.10;;;;;;6217204;28;20025;-75
2022/09/17 02:17:54;;;;;;;1.25;0.30;;;21.40;55.10;;;;;;6217013;28;20025;-73
2022/09/17 02:21:19;;;;;;;0.52;0.22;;;21.40;55.30;;;;;;6215433;28;20061;-74
2022/09/17 02:24:23;;;;;;;0.60;0.43;;;21.40;55.10;;;;;;6216707;28;20089;-74
2022/09/17 02:27:36;;;;;;;3.67;0.57;;;21.40;55.30;;;;;;6216810;28;20163;-73
2022/09/17 02:30:37;;;;;;;3.70;0.50;;;21.40;55.20;;;;;;6216677;28;20034;-73
2022/09/17 02:33:40;;;;;;;1.38;0.57;;;21.40;55.20;;;;;;6214984;28;20057;-73
2022/09/17 02:36:41;;;;;;;1.15;0.43;;;21.40;55.20;;;;;;6216723;28;20061;-74
2022/09/17 02:39:42;;;;;;;0.57;0.40;;;21.40;55.40;;;;;;6215695;28;20466;-74
2022/09/17 02:42:57;;;;;;;0.40;0.30;;;21.40;55.20;;;;;;6216112;28;20545;-74
2022/09/17 02:46:07;;;;;;;;;;;21.40;55.20;;;;;;6217062;28;20511;-73
2022/09/17 02:49:27;;;;;;;1.17;0.45;;;21.40;55.20;;;;;;6216475;28;19951;-73
2022/09/17 02:52:55;;;;;;;0.50;0.32;;;21.40;55.40;;;;;;6216272;28;20033;-74
2022/09/17 02:56:27;;;;;;;1.05;0.50;;;21.40;55.30;;;;;;6216147;28;20030;-73
2022/09/17 02:59:55;;;;;;;1.13;0.47;;;21.40;55.30;;;;;;6192223;28;20053;-73
2022/09/17 03:03:10;;;;;;;1.33;0.60;;;21.40;55.40;;;;;;6204008;28;20484;-74
2022/09/17 03:06:12;;;;;;;0.75;0.40;;;21.40;55.30;;;;;;6216384;28;20561;-74
2022/09/17 03:09:14;;;;;;;0.80;0.40;;;21.40;55.30;;;;;;6214779;28;20057;-74
2022/09/17 03:12:15;;;;;;;0.47;0.40;;;21.40;55.40;;;;;;6216349;28;20022;-74
2022/09/17 03:15:15;;;;;;;0.93;0.47;;;21.40;55.30;;;;;;6215604;28;20380;-73
2022/09/17 03:18:16;;;;;;;0.60;0.40;;;21.40;55.40;;;;;;6203474;28;20030;-74
2022/09/17 03:21:17;;;;;;;0.40;0.30;;;21.40;55.50;;;;;;6215846;28;20022;-73
2022/09/17 03:24:17;;;;;;;0.80;0.52;;;21.40;55.50;;;;;;6221999;28;20033;-74
2022/09/17 03:27:18;;;;;;;0.93;0.50;;;21.40;55.40;;;;;;6214683;28;20026;-74
2022/09/17 03:30:19;;;;;;;1.30;0.40;;;21.30;55.40;;;;;;6214467;28;20026;-74
2022/09/17 03:33:19;;;;;;;1.33;0.50;;;21.30;55.30;;;;;;6216119;28;20022;-73
2022/09/17 03:36:20;;;;;;;0.57;0.47;;;21.40;55.50;;;;;;6215991;28;20030;-73
2022/09/17 03:39:21;;;;;;;0.60;0.30;;;21.30;55.30;;;;;;6214514;28;20030;-74
2022/09/17 03:42:21;;;;;;;0.55;0.40;;;21.40;55.50;;;;;;6215404;28;20041;-73
2022/09/17 03:45:22;;;;;;;0.77;0.52;;;21.40;55.60;;;;;;6215725;28;20018;-74
2022/09/17 03:48:23;;;;;;;0.38;0.30;;;21.40;55.50;;;;;;6213878;28;20492;-73
2022/09/17 03:51:24;;;;;;;0.70;0.30;;;21.40;55.50;;;;;;6215337;28;20029;-74
2022/09/17 03:54:24;;;;;;;0.40;0.30;;;21.40;55.40;;;;;;6213714;28;20034;-73
2022/09/17 03:57:25;;;;;;;0.28;0.28;;;21.40;55.40;;;;;;6215705;28;20030;-73
2022/09/17 04:00:26;;;;;;;0.85;0.50;;;21.40;55.50;;;;;;6221228;28;20034;-74
2022/09/17 04:03:27;;;;;;;0.40;0.40;;;21.40;55.40;;;;;;6215230;28;20121;-73
2022/09/17 04:06:28;;;;;;;1.02;0.40;;;21.40;55.40;;;;;;6215784;28;20030;-73
2022/09/17 04:09:28;;;;;;;0.38;0.32;;;21.40;55.50;;;;;;6215196;28;20049;-73
2022/09/17 04:12:29;;;;;;;0.70;0.45;;;21.30;55.40;;;;;;6216506;28;20041;-73
2022/09/17 04:15:30;;;;;;;0.63;0.30;;;21.30;55.30;;;;;;6216161;28;20116;-73
2022/09/17 04:18:30;;;;;;;0.70;0.45;;;21.40;55.60;;;;;;6214853;28;20040;-73
2022/09/17 04:21:31;;;;;;;0.38;0.30;;;21.40;55.60;;;;;;6213891;28;20081;-74
2022/09/17 04:24:32;;;;;;;0.30;0.30;;;21.40;55.50;;;;;;6214487;28;20030;-74
2022/09/17 04:27:32;;;;;;;0.35;0.35;;;21.30;55.50;;;;;;6213898;28;20030;-73
2022/09/17 04:30:33;;;;;;;1.15;0.40;;;21.30;55.40;;;;;;6214738;28;20022;-73
2022/09/17 04:33:34;;;;;;;1.08;0.30;;;21.40;55.50;;;;;;6214958;28;20546;-74
2022/09/17 04:36:34;;;;;;;0.73;0.47;;;21.30;55.40;;;;;;6213002;28;20034;-74
2022/09/17 04:39:37;;;;;;;0.65;0.47;;;21.40;55.60;;;;;;6214481;28;20101;-73
2022/09/17 04:42:37;;;;;;;1.05;0.50;;;21.30;55.50;;;;;;6213902;28;20392;-74
2022/09/17 04:45:38;;;;;;;0.45;0.30;;;21.40;55.60;;;;;;6212984;28;20030;-73
2022/09/17 04:48:38;;;;;;;0.98;0.40;;;21.30;55.70;;;;;;6214288;28;20021;-74
2022/09/17 04:51:39;;;;;;;0.25;0.25;;;21.30;55.50;;;;;;6214632;28;20465;-74
2022/09/17 04:54:40;;;;;;;0.55;0.40;;;21.40;55.60;;;;;;6214131;28;20083;-73
2022/09/17 04:57:51;;;;;;;0.30;0.30;;;21.40;55.60;;;;;;6214342;28;20117;-74
2022/09/17 05:00:52;;;;;;;0.75;0.35;;;21.40;55.60;;;;;;6212124;28;20591;-73
2022/09/17 05:03:52;;;;;;;0.52;0.30;;;21.40;55.60;;;;;;6193384;28;20362;-74
2022/09/17 05:06:53;;;;;;;0.75;0.30;;;21.40;55.70;;;;;;6214051;28;20034;-74
2022/09/17 05:09:53;;;;;;;0.50;0.40;;;21.30;55.60;;;;;;6209917;28;20033;-73
2022/09/17 05:12:55;;;;;;;0.50;0.40;;;21.30;55.60;;;;;;6213780;28;20029;-74
2022/09/17 05:15:56;;;;;;;0.22;0.20;;;21.40;55.70;;;;;;6213784;28;20105;-74
2022/09/17 05:18:57;;;;;;;0.60;0.40;;;21.40;55.80;;;;;;6213938;28;20022;-74
2022/09/17 05:21:57;;;;;;;0.73;0.50;;;21.40;55.60;;;;;;6213758;28;20038;-74
2022/09/17 05:24:58;;;;;;;0.52;0.30;;;21.40;55.60;;;;;;6213284;28;20079;-74
2022/09/17 05:28:00;;;;;;;0.70;0.30;;;21.40;55.60;;;;;;6214064;28;20045;-74
2022/09/17 05:31:01;;;;;;;0.82;0.43;;;21.40;55.70;;;;;;6213841;28;20114;-74
2022/09/17 05:34:02;;;;;;;0.63;0.40;;;21.40;55.70;;;;;;6213822;28;20025;-73
2022/09/17 05:37:03;;;;;;;0.73;0.50;;;21.40;55.90;;;;;;6212492;28;20029;-73
2022/09/17 05:40:08;;;;;;;0.52;0.30;;;21.40;55.70;;;;;;6213452;28;20086;-74
2022/09/17 05:43:08;;;;;;;;;;;21.30;55.60;;;;;;6212324;28;20049;-73
2022/09/17 05:46:09;;;;;;;0.75;0.40;;;21.40;55.70;;;;;;6212030;28;20252;-74
2022/09/17 05:49:10;;;;;;;1.23;0.50;;;21.40;55.90;;;;;;6213430;28;20656;-73
2022/09/17 05:52:11;;;;;;;0.30;0.30;;;21.40;55.80;;;;;;6212184;28;20037;-73
2022/09/17 05:55:12;;;;;;;0.77;0.40;;;21.40;55.80;;;;;;6216007;28;20388;-73
2022/09/17 05:58:14;;;;;;;0.73;0.28;;;21.40;55.60;;;;;;6217382;28;20025;-74
2022/09/17 06:01:15;;;;;;;2.63;0.60;;;21.40;55.90;;;;;;6217197;28;20026;-74
2022/09/17 06:04:16;;;;;;;0.30;0.30;;;21.40;56.00;;;;;;6217127;28;20365;-73
2022/09/17 06:07:17;;;;;;;1.65;0.50;;;21.40;55.70;;;;;;6216788;28;20025;-73
2022/09/17 06:10:18;;;;;;;1.10;0.50;;;21.40;55.80;;;;;;6216916;28;20026;-73
2022/09/17 06:13:19;;;;;;;0.88;0.40;;;21.40;56.50;;;;;;6217158;28;20045;-73
2022/09/17 06:16:23;;;;;;;0.93;0.47;;;21.40;55.90;;;;;;6215184;28;20025;-74
2022/09/17 06:19:24;;;;;;;0.45;0.40;;;21.30;55.80;;;;;;6216963;28;20037;-74
2022/09/17 06:22:25;;;;;;;0.38;0.32;;;21.40;56.00;;;;;;6216186;28;20041;-73
2022/09/17 06:25:25;;;;;;;1.08;0.50;;;21.40;55.90;;;;;;6215785;28;20096;-73
2022/09/17 06:28:27;;;;;;;0.57;0.30;;;21.40;55.70;;;;;;6217102;28;20502;-73
2022/09/17 06:31:27;;;;;;;0.70;0.40;;;21.40;55.80;;;;;;6217033;28;20079;-74
2022/09/17 06:34:28;;;;;;;0.95;0.40;;;21.30;55.80;;;;;;6215191;28;20491;-74
2022/09/17 06:37:30;;;;;;;1.52;0.57;;;21.40;55.80;;;;;;6215184;28;20057;-73
2022/09/17 06:40:31;;;;;;;0.90;0.40;;;21.40;55.90;;;;;;6288113;28;20108;-74
2022/09/17 06:43:31;;;;;;;0.82;0.50;;;21.40;55.70;;;;;;6290211;28;20055;-74
2022/09/17 06:46:32;;;;;;;0.73;0.50;;;21.40;55.80;;;;;;6274101;28;20025;-73
2022/09/17 06:49:33;;;;;;;0.77;0.50;;;21.30;55.70;;;;;;6273974;28;20057;-74
2022/09/17 06:52:33;;;;;;;1.08;0.57;;;21.40;55.80;;;;;;6290998;28;20119;-74
2022/09/17 06:55:34;;;;;;;0.85;0.47;;;21.40;55.70;;;;;;6290772;28;20040;-73
2022/09/17 06:58:36;;;;;;;0.75;0.40;;;21.30;55.80;;;;;;6274676;28;20542;-73
2022/09/17 07:01:36;;;;;;;2.42;0.73;;;21.40;55.80;;;;;;6290451;28;20040;-73
2022/09/17 07:04:37;;;;;;;2.38;0.65;;;21.40;55.80;;;;;;6290568;28;20668;-74
2022/09/17 07:07:38;;;;;;;1.42;0.68;;;21.40;55.70;;;;;;6290437;28;20085;-73
2022/09/17 07:10:39;;;;;;;2.85;0.70;;;21.30;55.70;;;;;;6299189;28;20039;-74
2022/09/17 07:13:39;;;;;;;2.45;0.50;;;21.30;55.70;;;;;;6242435;28;20037;-73
2022/09/17 07:16:40;;;;;;;1.33;0.50;;;21.40;55.80;;;;;;6240818;28;20075;-74
2022/09/17 07:19:41;;;;;;;1.40;0.57;;;21.40;55.70;;;;;;6240952;28;20060;-73
2022/09/17 07:22:42;;;;;;;1.55;0.68;;;21.40;55.70;;;;;;6240234;28;20092;-74
2022/09/17 07:25:43;;;;;;;1.60;0.60;;;21.30;55.70;;;;;;6237819;28;20030;-73
2022/09/17 07:28:44;;;;;;;2.10;0.93;;;21.40;55.70;;;;;;6240676;28;20042;-74
2022/09/17 07:31:44;;;;;;;1.15;0.63;;;21.40;55.70;;;;;;6240111;28;20030;-74
2022/09/17 07:34:45;;;;;;;2.72;0.98;;;21.40;55.80;;;;;;6240568;28;20042;-73
2022/09/17 07:37:46;;;;;;;0.82;0.50;;;21.30;55.60;;;;;;6240143;28;20062;-74
2022/09/17 07:41:04;;;;;;;1.27;0.57;;;21.30;55.70;;;;;;6240367;28;20033;-74
2022/09/17 07:44:06;;;;;;;1.42;0.73;;;21.30;55.60;;;;;;6200461;28;20056;-73
2022/09/17 07:47:08;;;;;;;2.03;0.60;;;21.30;55.70;;;;;;6220640;28;20042;-74
2022/09/17 07:50:10;;;;;;;1.58;0.50;;;21.40;55.70;;;;;;6215615;28;20030;-74
2022/09/17 07:53:10;;;;;;;1.40;0.70;;;21.30;55.70;;;;;;6214082;28;20059;-74
2022/09/17 07:56:11;;;;;;;2.05;1.00;;;21.30;55.80;;;;;;6219997;28;20030;-74
2022/09/17 07:59:12;;;;;;;1.70;0.70;;;21.30;55.80;;;;;;6215331;28;20106;-74
2022/09/17 08:02:15;;;;;;;1.90;0.80;;;21.30;55.80;;;;;;6214670;28;20042;-74
2022/09/17 08:05:16;;;;;;;2.55;0.95;;;21.30;55.70;;;;;;6215081;28;20036;-74
2022/09/17 08:08:16;;;;;;;2.13;0.63;;;21.30;55.80;;;;;;6214936;28;20365;-74
2022/09/17 08:11:21;;;;;;;1.75;0.50;;;21.30;55.80;;;;;;6214597;28;20036;-73
2022/09/17 08:14:21;;;;;;;1.27;0.50;;;21.30;55.80;;;;;;6214960;28;20483;-73
2022/09/17 08:17:22;;;;;;;2.58;0.80;;;21.30;55.70;;;;;;6220443;28;20034;-74
2022/09/17 08:20:25;;;;;;;1.38;0.57;;;21.30;55.80;;;;;;6215205;28;20029;-74
2022/09/17 08:23:26;;;;;;;1.75;0.75;;;21.40;55.90;;;;;;6211697;28;20073;-73
2022/09/17 08:26:27;;;;;;;1.73;0.60;;;21.40;55.80;;;;;;6214995;28;20030;-74
2022/09/17 08:29:28;;;;;;;1.77;0.60;;;21.40;55.80;;;;;;6225513;28;20030;-74
2022/09/17 08:32:29;;;;;;;2.40;0.80;;;21.40;55.90;;;;;;6214589;28;20044;-74
2022/09/17 08:35:30;;;;;;;2.13;0.80;;;21.30;55.70;;;;;;6214496;28;20014;-74
2022/09/17 08:38:33;;;;;;;2.83;0.80;;;21.30;55.70;;;;;;6217973;28;20529;-74
2022/09/17 08:41:54;;;;;;;0.98;0.63;;;21.30;55.70;;;;;;6214068;28;20037;-73
2022/09/17 08:44:55;;;;;;;1.88;0.70;;;21.30;55.70;;;;;;6213885;28;20052;-74
2022/09/17 08:48:04;;;;;;;1.80;0.50;;;21.30;55.70;;;;;;6212947;28;20484;-74
2022/09/17 08:51:29;;;;;;;2.38;0.80;;;21.40;55.70;;;;;;6214609;28;20121;-74
2022/09/17 08:55:11;;;;;;;2.47;0.88;;;21.30;55.70;;;;;;6213793;28;20030;-73
2022/09/17 08:58:34;;;;;;;0.82;0.60;;;21.30;55.90;;;;;;6202420;28;20117;-73
2022/09/17 09:01:52;;;;;;;1.00;0.43;;;21.30;55.80;;;;;;6206928;28;20396;-73
2022/09/17 09:05:01;;;;;;;2.42;1.00;;;21.30;55.80;;;;;;6210008;28;20018;-73
2022/09/17 09:08:11;;;;;;;2.17;0.70;;;21.30;56.50;;;;;;6211397;28;20014;-74
2022/09/17 09:11:26;;;;;;;2.35;0.65;;;21.30;56.20;;;;;;6210998;28;20026;-73
2022/09/17 09:14:34;;;;;;;1.88;0.73;;;21.30;56.20;;;;;;6211450;28;20037;-74
2022/09/17 09:17:43;;;;;;;1.73;0.73;;;21.30;56.20;;;;;;6200706;28;20222;-74
2022/09/17 09:20:46;;;;;;;1.58;0.60;;;21.30;56.20;;;;;;6201307;28;20026;-74
2022/09/17 09:23:47;;;;;;;2.03;0.80;;;21.30;56.20;;;;;;6211169;28;20034;-74
2022/09/17 09:27:24;;;;;;;2.20;0.60;;;21.30;56.00;;;;;;6210136;28;20022;-74
2022/09/17 09:30:35;;;;;;;2.40;0.75;;;21.30;56.70;;;;;;6223873;28;20053;-74
2022/09/17 09:33:40;;;;;;;1.25;0.47;;;21.30;56.60;;;;;;6218723;28;20503;-73
2022/09/17 09:36:40;;;;;;;2.50;0.73;;;21.30;56.60;;;;;;6216572;28;20025;-73
2022/09/17 09:39:43;;;;;;;2.08;0.80;;;21.30;56.60;;;;;;6216969;28;20037;-74
2022/09/17 09:42:45;;;;;;;2.15;0.90;;;21.30;56.60;;;;;;6316044;27;20141;-74
2022/09/17 09:45:59;;;;;;;3.17;0.88;;;21.30;56.80;;;;;;6214784;28;20025;-73
2022/09/17 09:49:26;;;;;;;3.38;0.70;;;21.30;56.80;;;;;;6215805;28;20060;-73
2022/09/17 09:52:50;;;;;;;2.05;0.75;;;21.30;56.70;;;;;;6216120;28;20030;-73
2022/09/17 09:56:01;;;;;;;1.23;0.63;;;21.30;56.70;;;;;;6211858;28;20033;-74
2022/09/17 09:59:06;;;;;;;1.73;0.57;;;21.30;57.20;;;;;;6216147;28;20056;-74
2022/09/17 10:02:07;;;;;;;1.90;0.70;;;21.30;56.80;;;;;;6214395;28;20073;-74
2022/09/17 10:05:08;;;;;;;1.52;0.77;;;21.30;56.90;;;;;;6215621;28;20030;-74
2022/09/17 10:08:11;;;;;;;2.00;0.85;;;21.30;56.80;;;;;;6214829;28;20681;-73
2022/09/17 10:11:12;;;;;;;2.15;0.80;;;21.30;56.70;;;;;;6216124;28;20691;-73
2022/09/17 10:14:39;;;;;;;2.60;0.75;;;21.30;56.90;;;;;;6215908;28;20018;-74
2022/09/17 10:17:40;;;;;;;1.98;0.60;;;21.30;57.00;;;;;;6215121;28;20021;-73
2022/09/17 10:20:49;;;;;;;2.17;0.65;;;21.30;56.90;;;;;;6215823;28;20075;-74
2022/09/17 10:23:50;;;;;;;1.33;0.70;;;21.30;56.80;;;;;;6215519;28;20061;-73
2022/09/17 10:26:59;;;;;;;5.45;1.00;;;21.30;56.80;;;;;;6215275;28;20032;-73
2022/09/17 10:30:08;;;;;;;5.07;0.68;;;21.30;57.10;;;;;;6215607;28;20018;-73
2022/09/17 10:33:23;;;;;;;1.67;0.60;;;21.30;56.90;;;;;;6215292;28;20441;-74
2022/09/17 10:36:36;;;;;;;3.35;0.93;;;21.30;57.40;;;;;;6213772;28;20557;-73
2022/09/17 10:39:45;;;;;;;2.38;0.80;;;21.30;57.10;;;;;;6215063;28;20029;-73
2022/09/17 10:43:09;;;;;;;3.58;0.88;;;21.30;57.20;;;;;;6214931;28;20354;-73
2022/09/17 10:46:15;;;;;;;2.13;0.73;;;21.30;57.10;;;;;;6214620;28;20424;-73
2022/09/17 10:49:22;;;;;;;1.50;0.65;;;21.30;57.30;;;;;;6215406;28;20124;-74
2022/09/17 10:52:37;;;;;;;2.05;0.75;;;21.30;57.20;;;;;;6215492;28;20061;-75
2022/09/17 10:55:49;;;;;;;2.60;0.98;;;21.30;57.30;;;;;;6203558;28;20030;-73
2022/09/17 10:59:05;;;;;;;2.75;0.95;;;21.30;57.30;;;;;;6214644;28;20392;-73
2022/09/17 11:02:36;;;;;;;2.65;0.80;;;21.30;57.30;;;;;;6214563;28;20034;-73
2022/09/17 11:05:56;;;;;;;1.85;0.93;;;21.30;57.30;;;;;;6212403;28;20421;-74
2022/09/17 11:09:10;;;;;;;1.35;0.60;;;21.30;57.20;;;;;;6211914;28;20029;-74
2022/09/17 11:12:34;;;;;;;1.17;0.60;;;21.30;57.40;;;;;;6214675;28;20105;-74
2022/09/17 11:15:54;;;;;;;2.47;0.90;;;21.30;57.30;;;;;;6208788;28;20029;-74
2022/09/17 11:19:22;;;;;;;1.25;0.70;;;21.30;57.40;;;;;;6200386;28;20091;-74
2022/09/17 11:22:44;;;;;;;2.15;0.85;;;21.30;57.20;;;;;;6318378;27;20040;-73
2022/09/17 11:25:57;;;;;;;2.47;0.73;;;21.30;57.10;;;;;;6212712;28;20030;-73
2022/09/17 11:29:30;;;;;;;2.03;0.93;;;21.30;57.30;;;;;;6230878;28;20029;-74
2022/09/17 11:33:12;;;;;;;1.50;0.77;;;21.30;57.40;;;;;;6233308;28;20038;-74
2022/09/17 11:36:20;;;;;;;1.58;0.77;;;21.30;57.10;;;;;;6213675;28;20030;-73
2022/09/17 11:39:53;;;;;;;1.80;0.70;;;21.30;57.10;;;;;;6212250;28;20053;-74
2022/09/17 11:42:54;;;;;;;1.40;0.63;;;21.30;57.00;;;;;;6237510;28;20165;-73
2022/09/17 11:46:18;;;;;;;6.82;0.82;;;21.30;57.00;;;;;;6212979;28;20022;-73
2022/09/17 11:49:22;;;;;;;1.58;0.63;;;21.30;56.90;;;;;;6213073;28;20030;-73
2022/09/17 11:52:30;;;;;;;0.93;0.50;;;21.40;57.00;;;;;;6212205;28;20022;-74
2022/09/17 11:56:09;;;;;;;1.65;0.50;;;21.30;57.00;;;;;;6223627;28;20040;-73
2022/09/17 11:59:32;;;;;;;1.75;0.80;;;21.30;57.00;;;;;;6286818;28;20036;-74
2022/09/17 12:02:45;;;;;;;2.05;0.80;;;21.30;56.90;;;;;;6201723;28;20087;-73
2022/09/17 12:05:50;;;;;;;2.47;0.73;;;21.30;56.80;;;;;;6286141;28;20468;-74
2022/09/17 12:09:16;;;;;;;3.45;0.80;;;21.40;56.90;;;;;;6286803;28;20107;-74
2022/09/17 12:12:19;;;;;;;1.15;0.60;;;21.30;57.00;;;;;;6275845;28;20037;-74
2022/09/17 12:15:27;;;;;;;1.88;0.70;;;21.30;57.10;;;;;;6281638;28;20024;-73
2022/09/17 12:18:53;;;;;;;1.90;0.80;;;21.40;57.00;;;;;;6277628;28;20415;-73
2022/09/17 12:21:56;;;;;;;;;;;21.40;56.90;;;;;;6286484;28;20416;-73
2022/09/17 12:24:59;;;;;;;1.95;0.82;;;21.40;57.10;;;;;;6275350;28;19908;-73
2022/09/17 12:28:34;;;;;;;2.28;0.70;;;21.40;57.10;;;;;;6280298;28;20041;-73
2022/09/17 12:31:40;;;;;;;2.10;1.10;;;21.30;56.80;;;;;;6272011;28;20143;-74
2022/09/17 12:34:55;;;;;;;3.72;0.90;;;21.40;56.90;;;;;;6202671;28;20488;-73
2022/09/17 12:38:05;;;;;;;1.30;0.65;;;21.40;56.90;;;;;;6211238;28;20032;-73
2022/09/17 12:41:28;;;;;;;3.75;0.70;;;21.40;57.00;;;;;;6211610;28;20033;-73
2022/09/17 12:45:00;;;;;;;2.53;0.65;;;21.40;56.90;;;;;;6210962;28;20325;-73
2022/09/17 12:48:33;;;;;;;2.08;0.60;;;21.30;56.80;;;;;;6211138;28;20075;-73
2022/09/17 12:51:59;;;;;;;1.67;0.70;;;21.40;56.90;;;;;;6195717;28;20034;-73
2022/09/17 12:55:34;;;;;;;1.38;0.45;;;21.40;57.50;;;;;;6210529;28;20109;-73
2022/09/17 12:58:38;;;;;;;7.73;0.73;;;21.40;56.90;;;;;;6312829;28;20122;-74
2022/09/17 13:01:57;;;;;;;1.33;0.60;;;21.40;57.10;;;;;;6211238;28;20037;-74
2022/09/17 13:05:22;;;;;;;0.95;0.50;;;21.40;58.10;;;;;;6214868;28;20030;-72
2022/09/17 13:08:39;;;;;;;3.28;0.77;;;21.40;57.60;;;;;;6215358;28;20022;-72
2022/09/17 13:11:48;;;;;;;7.93;0.80;;;21.40;57.00;;;;;;6210301;28;20018;-72
2022/09/17 13:15:25;;;;;;;12.68;0.70;;;21.50;57.50;;;;;;6214786;28;20033;-72
2022/09/17 13:18:49;;;;;;;1.27;0.60;;;21.50;56.80;;;;;;6215451;28;20070;-72
2022/09/17 13:21:59;;;;;;;4.30;0.90;;;21.40;55.50;;;;;;6248625;28;20098;-71
2022/09/17 13:25:11;;;;;;;5.20;0.70;;;21.40;55.70;;;;;;6217951;28;20380;-72
2022/09/17 13:28:12;;;;;;;3.70;0.70;;;21.50;57.00;;;;;;6218346;28;20034;-72
2022/09/17 13:31:19;;;;;;;15.68;1.17;;;21.50;57.00;;;;;;6217834;28;20065;-72
2022/09/17 13:34:19;;;;;;;5.72;1.05;;;21.40;56.80;;;;;;6218089;28;20025;-72
2022/09/17 13:37:21;;;;;;;6.38;0.95;;;21.40;56.70;;;;;;6217930;28;20437;-72
2022/09/17 13:40:24;;;;;;;6.82;1.50;;;21.40;56.90;;;;;;6222110;28;20034;-73
2022/09/17 13:43:26;;;;;;;4.95;0.75;;;21.40;56.80;;;;;;6217886;28;20060;-71
2022/09/17 13:46:28;;;;;;;2.67;0.75;;;21.40;56.70;;;;;;6217785;28;20060;-72
2022/09/17 13:49:28;;;;;;;6.35;0.90;;;21.40;56.70;;;;;;6224482;28;20034;-71
2022/09/17 13:52:41;;;;;;;7.50;0.90;;;21.40;56.50;;;;;;6217360;28;20075;-71
2022/09/17 13:55:43;;;;;;;3.35;0.57;;;21.40;56.80;;;;;;6217826;28;20054;-71
2022/09/17 13:58:45;;;;;;;2.05;0.80;;;21.40;57.00;;;;;;6217855;28;20030;-72
2022/09/17 14:01:57;;;;;;;2.80;0.80;;;21.40;56.80;;;;;;6217492;28;20054;-71
2022/09/17 14:05:36;;;;;;;7.97;0.77;;;21.40;57.00;;;;;;6217283;28;20037;-72
2022/09/17 14:08:43;;;;;;;2.03;0.85;;;21.40;57.10;;;;;;6292271;28;20025;-72
2022/09/17 14:11:43;;;;;;;1.77;0.60;;;21.40;57.10;;;;;;6291528;28;20111;-72
2022/09/17 14:14:50;;;;;;;3.63;0.77;;;21.40;57.10;;;;;;6217352;28;20044;-73
2022/09/17 14:17:52;;;;;;;1.90;0.68;;;21.40;56.60;;;;;;6218805;28;20042;-71
2022/09/17 14:20:54;;;;;;;1.92;0.75;;;21.40;56.80;;;;;;6218683;28;20034;-71
2022/09/17 14:24:14;;;;;;;4.40;0.70;;;21.40;57.20;;;;;;6221697;28;20033;-72
2022/09/17 14:27:39;;;;;;;1.60;0.52;;;21.40;56.90;;;;;;6218873;28;20030;-71
2022/09/17 14:30:43;;;;;;;2.30;0.70;;;21.40;57.00;;;;;;6218989;28;20048;-72
2022/09/17 14:33:45;;;;;;;2.75;0.88;;;21.40;57.20;;;;;;6219202;28;20038;-72
2022/09/17 14:36:47;;;;;;;3.90;0.70;;;21.40;57.00;;;;;;6218723;28;20018;-72
2022/09/17 14:39:50;;;;;;;1.95;0.70;;;21.40;57.00;;;;;;6218679;28;20426;-71
2022/09/17 14:42:55;;;;;;;3.17;1.00;;;21.40;57.00;;;;;;6218225;28;20046;-72
2022/09/17 14:45:57;;;;;;;2.58;0.70;;;21.40;57.20;;;;;;6218719;28;20411;-71
2022/09/17 14:49:22;;;;;;;2.83;0.75;;;21.40;57.00;;;;;;6224932;28;20030;-72
2022/09/17 14:52:31;;;;;;;3.33;0.65;;;21.40;57.00;;;;;;6218583;28;20030;-72
2022/09/17 14:55:32;;;;;;;0.70;0.35;;;21.40;57.20;;;;;;6218988;28;20046;-71
2022/09/17 14:58:39;;;;;;;1.38;0.60;;;21.30;57.20;;;;;;6218546;28;20119;-71
2022/09/17 15:01:46;;;;;;;1.73;0.50;;;21.40;57.00;;;;;;6218389;28;20061;-72
2022/09/17 15:04:47;;;;;;;0.93;0.40;;;21.40;57.00;;;;;;6218287;28;20091;-72
2022/09/17 15:07:48;;;;;;;1.67;0.70;;;21.40;57.00;;;;;;6218421;28;20030;-71
2022/09/17 15:10:59;;;;;;;1.55;0.68;;;21.30;57.10;;;;;;6218364;28;20109;-71
2022/09/17 15:14:05;;;;;;;1.23;0.75;;;21.40;57.30;;;;;;6218070;28;20010;-71
2022/09/17 15:17:13;;;;;;;1.40;0.60;;;21.30;57.20;;;;;;6218177;28;20652;-71
2022/09/17 15:20:20;;;;;;;2.35;0.60;;;21.30;57.10;;;;;;6217926;28;20026;-71
2022/09/17 15:23:27;;;;;;;0.98;0.55;;;21.30;57.00;;;;;;6218131;28;20025;-71
2022/09/17 15:26:33;;;;;;;1.92;0.50;;;21.30;57.10;;;;;;6217974;28;20112;-72
2022/09/17 15:29:37;;;;;;;1.25;0.57;;;21.30;57.70;;;;;;6217554;28;20030;-72
2022/09/17 15:32:42;;;;;;;1.60;0.60;;;21.30;57.60;;;;;;6217532;28;20053;-71
2022/09/17 15:35:58;;;;;;;1.25;0.50;;;21.30;57.30;;;;;;6216989;28;20068;-71
2022/09/17 15:38:59;;;;;;;3.25;0.50;;;21.30;57.20;;;;;;6223223;28;20022;-72
2022/09/17 15:41:59;;;;;;;0.98;0.45;;;21.30;57.30;;;;;;6217613;28;20087;-71
2022/09/17 15:45:19;;;;;;;2.00;0.77;;;21.30;57.40;;;;;;6291315;28;20145;-71
2022/09/17 15:48:27;;;;;;;0.68;0.40;;;21.30;57.10;;;;;;6271065;28;20041;-71
2022/09/17 15:51:34;;;;;;;1.02;0.40;;;21.30;57.20;;;;;;6286330;28;20501;-72
2022/09/17 15:54:36;;;;;;;1.85;0.50;;;21.30;56.90;;;;;;6288212;28;20517;-71
2022/09/17 15:57:37;;;;;;;1.88;0.40;;;21.30;56.90;;;;;;6309120;28;20069;-72
2022/09/17 16:00:37;;;;;;;3.50;0.30;;;21.30;56.60;;;;;;6281479;28;20036;-71
2022/09/17 16:03:38;;;;;;;1.48;0.45;;;21.30;56.80;;;;;;6219986;28;20046;-71
2022/09/17 16:06:57;;;;;;;1.20;0.50;;;21.30;56.70;;;;;;6289432;28;20036;-71
2022/09/17 16:09:58;;;;;;;1.20;0.52;;;21.30;56.60;;;;;;6289373;28;20438;-72
2022/09/17 16:12:58;;;;;;;3.70;0.57;;;21.30;56.40;;;;;;6289458;28;20071;-72
2022/09/17 16:15:59;;;;;;;2.35;0.60;;;21.30;57.50;;;;;;6246023;28;20056;-71
2022/09/17 16:19:00;;;;;;;0.60;0.50;;;21.30;57.30;;;;;;6213837;28;20030;-71